📊 Raw Sensor Data

Showing records 35501 to 35525 of 84,879 total

ID Distance (ft) Battery V Battery A Int Temp (°F) Int Humid (%) Ext Temp (°F) Solar V RSSI SNR Time Stamp
49391 15.6 3.87 -5 73 53 72 2.00 -68 7 08/16/2025 08:15 PM
49390 15.6 3.67 -7 75 54 72 1.60 -70 8 08/16/2025 08:00 PM
49389 15.7 3.87 -5 78 54 75 4.50 -70 8 08/16/2025 07:45 PM
49388 15.7 3.91 0 83 53 78 4.50 -70 7 08/16/2025 07:30 PM
49387 15.7 3.93 5 85 53 79 4.50 -72 7 08/16/2025 07:15 PM
49386 15.8 3.85 -7 88 52 81 4.50 -69 8 08/16/2025 07:00 PM
49385 15.8 3.90 0 90 51 82 5.10 -69 8 08/16/2025 06:45 PM
49384 15.8 3.87 0 92 51 83 5.10 -71 8 08/16/2025 06:30 PM
49383 15.8 3.87 0 94 50 86 5.10 -70 8 08/16/2025 06:15 PM
49382 15.8 3.91 0 94 50 85 5.10 -70 8 08/16/2025 06:00 PM
49381 15.8 3.87 0 96 49 86 5.10 -70 8 08/16/2025 05:45 PM
49380 15.8 3.87 0 97 48 87 5.10 -68 7 08/16/2025 05:30 PM
49379 15.8 3.87 0 98 47 89 5.10 -71 7 08/16/2025 04:45 PM
49378 15.8 3.87 0 100 46 88 5.10 -70 8 08/16/2025 04:30 PM
49377 15.8 3.87 0 100 46 89 5.10 -71 8 08/16/2025 04:15 PM
49376 15.8 4.00 0 101 45 91 5.10 -70 8 08/16/2025 04:00 PM
49375 15.8 3.87 0 100 45 90 5.10 -70 8 08/16/2025 03:45 PM
49374 15.8 3.87 0 101 43 90 5.10 -69 8 08/16/2025 03:30 PM
49373 15.8 3.97 0 100 43 89 5.10 -70 8 08/16/2025 03:15 PM
49372 15.8 3.87 0 100 43 90 5.10 -68 7 08/16/2025 03:00 PM
49371 15.8 3.87 0 100 42 89 5.10 -71 8 08/16/2025 02:45 PM
49370 15.8 3.87 0 97 42 88 5.10 -70 7 08/16/2025 02:15 PM
49369 15.8 3.98 0 96 42 85 5.10 -70 7 08/16/2025 02:00 PM
49368 15.8 3.87 0 95 42 86 5.10 -69 8 08/16/2025 01:45 PM
49367 15.8 3.94 0 93 42 83 5.10 -69 7 08/16/2025 01:30 PM